sensor_id;sensor_type;location;lat;lon;timestamp;P1;durP1;ratioP1;P2;durP2;ratioP2
72941;SDS011;69665;55.822;37.330;2023-11-25T00:00:05;25.73;;;10.95;;
72941;SDS011;69665;55.822;37.330;2023-11-25T00:02:38;26.73;;;9.90;;
72941;SDS011;69665;55.822;37.330;2023-11-25T00:05:03;26.30;;;9.50;;
72941;SDS011;69665;55.822;37.330;2023-11-25T00:07:29;24.25;;;10.93;;
72941;SDS011;69665;55.822;37.330;2023-11-25T00:09:55;24.65;;;10.82;;
72941;SDS011;69665;55.822;37.330;2023-11-25T00:12:20;22.73;;;9.30;;
72941;SDS011;69665;55.822;37.330;2023-11-25T00:14:46;25.27;;;9.93;;
72941;SDS011;69665;55.822;37.330;2023-11-25T00:17:12;25.55;;;11.15;;
72941;SDS011;69665;55.822;37.330;2023-11-25T00:19:37;24.00;;;9.85;;
72941;SDS011;69665;55.822;37.330;2023-11-25T00:22:03;24.42;;;10.85;;
72941;SDS011;69665;55.822;37.330;2023-11-25T00:24:28;25.92;;;9.98;;
72941;SDS011;69665;55.822;37.330;2023-11-25T00:26:54;24.58;;;9.32;;
72941;SDS011;69665;55.822;37.330;2023-11-25T00:29:19;20.70;;;8.70;;
72941;SDS011;69665;55.822;37.330;2023-11-25T00:31:48;23.30;;;9.88;;
72941;SDS011;69665;55.822;37.330;2023-11-25T00:34:14;19.90;;;9.20;;
72941;SDS011;69665;55.822;37.330;2023-11-25T00:36:40;25.88;;;8.95;;
72941;SDS011;69665;55.822;37.330;2023-11-25T00:39:06;28.20;;;11.70;;
72941;SDS011;69665;55.822;37.330;2023-11-25T00:41:32;27.80;;;10.07;;
72941;SDS011;69665;55.822;37.330;2023-11-25T00:43:59;21.85;;;8.85;;
72941;SDS011;69665;55.822;37.330;2023-11-25T00:46:25;25.50;;;10.40;;
72941;SDS011;69665;55.822;37.330;2023-11-25T00:48:51;22.42;;;9.32;;
72941;SDS011;69665;55.822;37.330;2023-11-25T00:51:18;23.90;;;10.38;;
72941;SDS011;69665;55.822;37.330;2023-11-25T00:53:43;29.10;;;11.35;;
72941;SDS011;69665;55.822;37.330;2023-11-25T00:56:09;22.92;;;10.18;;
72941;SDS011;69665;55.822;37.330;2023-11-25T00:58:36;21.23;;;9.27;;
72941;SDS011;69665;55.822;37.330;2023-11-25T01:01:02;23.40;;;9.25;;
72941;SDS011;69665;55.822;37.330;2023-11-25T01:03:30;23.98;;;9.25;;
72941;SDS011;69665;55.822;37.330;2023-11-25T01:05:56;22.67;;;8.43;;
72941;SDS011;69665;55.822;37.330;2023-11-25T01:08:22;26.15;;;11.32;;
72941;SDS011;69665;55.822;37.330;2023-11-25T01:10:51;21.67;;;9.52;;
72941;SDS011;69665;55.822;37.330;2023-11-25T01:13:17;27.85;;;9.35;;
72941;SDS011;69665;55.822;37.330;2023-11-25T01:15:42;26.50;;;9.15;;
72941;SDS011;69665;55.822;37.330;2023-11-25T01:18:08;27.73;;;10.93;;
72941;SDS011;69665;55.822;37.330;2023-11-25T01:20:35;27.50;;;10.27;;
72941;SDS011;69665;55.822;37.330;2023-11-25T01:23:00;23.33;;;10.52;;
72941;SDS011;69665;55.822;37.330;2023-11-25T01:25:26;25.63;;;10.73;;
72941;SDS011;69665;55.822;37.330;2023-11-25T01:27:51;27.27;;;10.82;;
72941;SDS011;69665;55.822;37.330;2023-11-25T01:30:19;26.17;;;11.02;;
72941;SDS011;69665;55.822;37.330;2023-11-25T01:32:45;25.65;;;11.02;;
72941;SDS011;69665;55.822;37.330;2023-11-25T01:35:11;27.50;;;10.88;;
72941;SDS011;69665;55.822;37.330;2023-11-25T01:37:37;28.58;;;9.25;;
72941;SDS011;69665;55.822;37.330;2023-11-25T01:40:03;22.05;;;10.43;;
72941;SDS011;69665;55.822;37.330;2023-11-25T01:42:30;24.52;;;9.63;;
72941;SDS011;69665;55.822;37.330;2023-11-25T01:44:56;25.48;;;10.20;;
72941;SDS011;69665;55.822;37.330;2023-11-25T01:47:22;23.45;;;10.70;;
72941;SDS011;69665;55.822;37.330;2023-11-25T01:49:48;26.77;;;11.18;;
72941;SDS011;69665;55.822;37.330;2023-11-25T01:52:14;24.02;;;10.60;;
72941;SDS011;69665;55.822;37.330;2023-11-25T01:54:40;22.13;;;9.85;;
72941;SDS011;69665;55.822;37.330;2023-11-25T01:57:06;24.38;;;10.60;;
72941;SDS011;69665;55.822;37.330;2023-11-25T01:59:32;27.33;;;9.80;;
72941;SDS011;69665;55.822;37.330;2023-11-25T02:01:58;23.30;;;9.80;;
72941;SDS011;69665;55.822;37.330;2023-11-25T02:04:26;26.90;;;10.35;;
72941;SDS011;69665;55.822;37.330;2023-11-25T02:06:52;28.20;;;11.02;;
72941;SDS011;69665;55.822;37.330;2023-11-25T02:09:19;24.67;;;8.88;;
72941;SDS011;69665;55.822;37.330;2023-11-25T02:11:55;23.10;;;9.63;;
72941;SDS011;69665;55.822;37.330;2023-11-25T02:14:22;26.30;;;9.90;;
72941;SDS011;69665;55.822;37.330;2023-11-25T02:16:48;23.38;;;10.32;;
72941;SDS011;69665;55.822;37.330;2023-11-25T02:19:14;22.40;;;9.85;;
72941;SDS011;69665;55.822;37.330;2023-11-25T02:21:45;24.17;;;10.32;;
72941;SDS011;69665;55.822;37.330;2023-11-25T02:24:11;23.38;;;10.13;;
72941;SDS011;69665;55.822;37.330;2023-11-25T02:26:38;26.17;;;9.93;;
72941;SDS011;69665;55.822;37.330;2023-11-25T02:29:04;26.08;;;11.15;;
72941;SDS011;69665;55.822;37.330;2023-11-25T02:31:34;27.23;;;10.07;;
72941;SDS011;69665;55.822;37.330;2023-11-25T02:33:59;23.27;;;10.05;;
72941;SDS011;69665;55.822;37.330;2023-11-25T02:36:25;23.40;;;9.65;;
72941;SDS011;69665;55.822;37.330;2023-11-25T02:38:52;26.55;;;9.20;;
72941;SDS011;69665;55.822;37.330;2023-11-25T02:41:17;22.40;;;10.02;;
72941;SDS011;69665;55.822;37.330;2023-11-25T02:43:43;24.60;;;9.02;;
72941;SDS011;69665;55.822;37.330;2023-11-25T02:46:09;21.77;;;8.90;;
72941;SDS011;69665;55.822;37.330;2023-11-25T02:48:34;22.40;;;9.45;;
72941;SDS011;69665;55.822;37.330;2023-11-25T02:51:03;26.17;;;10.32;;
72941;SDS011;69665;55.822;37.330;2023-11-25T02:53:28;28.33;;;10.18;;
72941;SDS011;69665;55.822;37.330;2023-11-25T02:55:55;26.88;;;9.82;;
72941;SDS011;69665;55.822;37.330;2023-11-25T02:58:21;26.42;;;10.18;;
72941;SDS011;69665;55.822;37.330;2023-11-25T03:00:47;21.08;;;6.72;;
72941;SDS011;69665;55.822;37.330;2023-11-25T03:03:15;16.70;;;8.40;;
72941;SDS011;69665;55.822;37.330;2023-11-25T03:05:48;21.25;;;8.13;;
72941;SDS011;69665;55.822;37.330;2023-11-25T03:10:44;25.00;;;8.38;;
72941;SDS011;69665;55.822;37.330;2023-11-25T03:13:13;22.50;;;9.25;;
72941;SDS011;69665;55.822;37.330;2023-11-25T03:15:39;20.63;;;8.07;;
72941;SDS011;69665;55.822;37.330;2023-11-25T03:18:06;20.45;;;7.97;;
72941;SDS011;69665;55.822;37.330;2023-11-25T03:20:35;19.77;;;9.05;;
72941;SDS011;69665;55.822;37.330;2023-11-25T03:23:02;19.30;;;7.78;;
72941;SDS011;69665;55.822;37.330;2023-11-25T03:25:29;22.88;;;8.25;;
72941;SDS011;69665;55.822;37.330;2023-11-25T03:27:57;26.60;;;9.38;;
72941;SDS011;69665;55.822;37.330;2023-11-25T03:30:23;24.95;;;9.63;;
72941;SDS011;69665;55.822;37.330;2023-11-25T03:32:49;25.63;;;9.75;;
72941;SDS011;69665;55.822;37.330;2023-11-25T03:35:15;23.17;;;9.40;;
72941;SDS011;69665;55.822;37.330;2023-11-25T03:37:41;24.25;;;9.13;;
72941;SDS011;69665;55.822;37.330;2023-11-25T03:40:07;21.30;;;8.80;;
72941;SDS011;69665;55.822;37.330;2023-11-25T03:42:36;20.60;;;8.38;;
72941;SDS011;69665;55.822;37.330;2023-11-25T03:45:02;23.40;;;9.50;;
72941;SDS011;69665;55.822;37.330;2023-11-25T03:47:30;22.02;;;8.48;;
72941;SDS011;69665;55.822;37.330;2023-11-25T03:49:55;21.42;;;7.68;;
72941;SDS011;69665;55.822;37.330;2023-11-25T03:52:21;22.08;;;8.30;;
72941;SDS011;69665;55.822;37.330;2023-11-25T03:54:47;22.38;;;8.95;;
72941;SDS011;69665;55.822;37.330;2023-11-25T03:57:14;21.92;;;7.18;;
72941;SDS011;69665;55.822;37.330;2023-11-25T03:59:40;16.90;;;8.35;;
72941;SDS011;69665;55.822;37.330;2023-11-25T04:02:06;18.83;;;8.07;;
72941;SDS011;69665;55.822;37.330;2023-11-25T04:04:32;20.55;;;8.15;;
72941;SDS011;69665;55.822;37.330;2023-11-25T04:06:58;19.85;;;7.97;;
72941;SDS011;69665;55.822;37.330;2023-11-25T04:09:24;16.63;;;6.63;;
72941;SDS011;69665;55.822;37.330;2023-11-25T04:11:50;18.75;;;7.28;;
72941;SDS011;69665;55.822;37.330;2023-11-25T04:14:16;18.55;;;7.85;;
72941;SDS011;69665;55.822;37.330;2023-11-25T04:16:42;20.77;;;7.18;;
72941;SDS011;69665;55.822;37.330;2023-11-25T04:19:09;25.08;;;8.52;;
72941;SDS011;69665;55.822;37.330;2023-11-25T04:21:35;20.25;;;7.80;;
72941;SDS011;69665;55.822;37.330;2023-11-25T04:24:02;20.73;;;7.28;;
72941;SDS011;69665;55.822;37.330;2023-11-25T04:26:29;17.75;;;6.53;;
72941;SDS011;69665;55.822;37.330;2023-11-25T04:28:56;19.20;;;7.45;;
72941;SDS011;69665;55.822;37.330;2023-11-25T04:31:22;20.98;;;7.93;;
72941;SDS011;69665;55.822;37.330;2023-11-25T04:33:47;19.77;;;8.70;;
72941;SDS011;69665;55.822;37.330;2023-11-25T04:36:13;18.02;;;7.72;;
72941;SDS011;69665;55.822;37.330;2023-11-25T04:38:40;22.63;;;7.72;;
72941;SDS011;69665;55.822;37.330;2023-11-25T04:41:06;19.45;;;8.27;;
72941;SDS011;69665;55.822;37.330;2023-11-25T04:43:31;14.52;;;6.53;;
72941;SDS011;69665;55.822;37.330;2023-11-25T04:45:57;21.70;;;6.50;;
72941;SDS011;69665;55.822;37.330;2023-11-25T04:48:22;20.80;;;7.05;;
72941;SDS011;69665;55.822;37.330;2023-11-25T04:50:48;20.20;;;7.93;;
72941;SDS011;69665;55.822;37.330;2023-11-25T04:53:14;19.13;;;7.15;;
72941;SDS011;69665;55.822;37.330;2023-11-25T04:55:39;18.92;;;7.47;;
72941;SDS011;69665;55.822;37.330;2023-11-25T04:58:05;20.00;;;8.93;;
72941;SDS011;69665;55.822;37.330;2023-11-25T05:00:30;17.50;;;7.35;;
72941;SDS011;69665;55.822;37.330;2023-11-25T05:02:56;17.55;;;7.22;;
72941;SDS011;69665;55.822;37.330;2023-11-25T05:05:22;13.65;;;6.45;;
72941;SDS011;69665;55.822;37.330;2023-11-25T05:07:48;16.65;;;6.10;;
72941;SDS011;69665;55.822;37.330;2023-11-25T05:10:14;15.00;;;6.07;;
72941;SDS011;69665;55.822;37.330;2023-11-25T05:12:40;17.88;;;7.25;;
72941;SDS011;69665;55.822;37.330;2023-11-25T05:15:10;15.27;;;5.65;;
72941;SDS011;69665;55.822;37.330;2023-11-25T05:17:37;20.75;;;7.18;;
72941;SDS011;69665;55.822;37.330;2023-11-25T05:20:03;13.48;;;5.00;;
72941;SDS011;69665;55.822;37.330;2023-11-25T05:22:30;14.93;;;6.57;;
72941;SDS011;69665;55.822;37.330;2023-11-25T05:24:55;16.27;;;7.00;;
72941;SDS011;69665;55.822;37.330;2023-11-25T05:27:21;12.98;;;5.05;;
72941;SDS011;69665;55.822;37.330;2023-11-25T05:29:48;21.02;;;7.28;;
72941;SDS011;69665;55.822;37.330;2023-11-25T05:32:15;15.50;;;6.00;;
72941;SDS011;69665;55.822;37.330;2023-11-25T05:34:41;15.15;;;5.68;;
72941;SDS011;69665;55.822;37.330;2023-11-25T05:37:06;16.17;;;6.03;;
72941;SDS011;69665;55.822;37.330;2023-11-25T05:39:35;18.02;;;6.70;;
72941;SDS011;69665;55.822;37.330;2023-11-25T05:42:01;16.27;;;6.47;;
72941;SDS011;69665;55.822;37.330;2023-11-25T05:44:28;15.32;;;5.53;;
72941;SDS011;69665;55.822;37.330;2023-11-25T05:46:55;20.60;;;6.15;;
72941;SDS011;69665;55.822;37.330;2023-11-25T05:49:22;16.40;;;6.10;;
72941;SDS011;69665;55.822;37.330;2023-11-25T05:51:48;17.73;;;6.35;;
72941;SDS011;69665;55.822;37.330;2023-11-25T05:54:16;18.25;;;6.70;;
72941;SDS011;69665;55.822;37.330;2023-11-25T05:56:43;16.95;;;7.18;;
72941;SDS011;69665;55.822;37.330;2023-11-25T05:59:09;15.82;;;6.72;;
72941;SDS011;69665;55.822;37.330;2023-11-25T06:01:35;16.65;;;6.57;;
72941;SDS011;69665;55.822;37.330;2023-11-25T06:04:01;16.00;;;6.55;;
72941;SDS011;69665;55.822;37.330;2023-11-25T06:06:27;18.35;;;7.28;;
72941;SDS011;69665;55.822;37.330;2023-11-25T06:08:52;13.85;;;6.57;;
72941;SDS011;69665;55.822;37.330;2023-11-25T06:11:21;16.90;;;7.10;;
72941;SDS011;69665;55.822;37.330;2023-11-25T06:13:47;19.75;;;6.47;;
72941;SDS011;69665;55.822;37.330;2023-11-25T06:16:14;16.58;;;6.50;;
72941;SDS011;69665;55.822;37.330;2023-11-25T06:18:39;14.90;;;6.72;;
72941;SDS011;69665;55.822;37.330;2023-11-25T06:21:05;14.73;;;5.93;;
72941;SDS011;69665;55.822;37.330;2023-11-25T06:23:31;16.25;;;6.40;;
72941;SDS011;69665;55.822;37.330;2023-11-25T06:25:58;16.38;;;6.65;;
72941;SDS011;69665;55.822;37.330;2023-11-25T06:28:25;14.10;;;5.20;;
72941;SDS011;69665;55.822;37.330;2023-11-25T06:30:51;18.33;;;7.50;;
72941;SDS011;69665;55.822;37.330;2023-11-25T06:33:20;18.20;;;6.80;;
72941;SDS011;69665;55.822;37.330;2023-11-25T06:35:48;17.95;;;5.78;;
72941;SDS011;69665;55.822;37.330;2023-11-25T06:38:13;15.50;;;6.57;;
72941;SDS011;69665;55.822;37.330;2023-11-25T06:40:39;17.38;;;6.45;;
72941;SDS011;69665;55.822;37.330;2023-11-25T06:43:05;16.20;;;6.47;;
72941;SDS011;69665;55.822;37.330;2023-11-25T06:45:31;19.58;;;6.35;;
72941;SDS011;69665;55.822;37.330;2023-11-25T06:47:58;18.10;;;7.43;;
72941;SDS011;69665;55.822;37.330;2023-11-25T06:50:24;19.23;;;7.28;;
72941;SDS011;69665;55.822;37.330;2023-11-25T06:52:49;20.05;;;7.90;;
72941;SDS011;69665;55.822;37.330;2023-11-25T06:55:17;14.88;;;6.15;;
72941;SDS011;69665;55.822;37.330;2023-11-25T06:57:42;17.50;;;6.65;;
72941;SDS011;69665;55.822;37.330;2023-11-25T07:00:08;19.75;;;7.35;;
72941;SDS011;69665;55.822;37.330;2023-11-25T07:02:36;16.88;;;6.78;;
72941;SDS011;69665;55.822;37.330;2023-11-25T07:05:05;16.45;;;6.97;;
72941;SDS011;69665;55.822;37.330;2023-11-25T07:07:33;16.67;;;6.53;;
72941;SDS011;69665;55.822;37.330;2023-11-25T07:09:59;19.13;;;6.20;;
72941;SDS011;69665;55.822;37.330;2023-11-25T07:12:25;16.48;;;5.85;;
72941;SDS011;69665;55.822;37.330;2023-11-25T07:14:51;19.55;;;6.80;;
72941;SDS011;69665;55.822;37.330;2023-11-25T07:17:16;15.95;;;6.22;;
72941;SDS011;69665;55.822;37.330;2023-11-25T07:19:42;18.15;;;6.88;;
72941;SDS011;69665;55.822;37.330;2023-11-25T07:22:08;14.95;;;5.95;;
72941;SDS011;69665;55.822;37.330;2023-11-25T07:24:37;17.75;;;6.65;;
72941;SDS011;69665;55.822;37.330;2023-11-25T07:27:05;19.13;;;7.18;;
72941;SDS011;69665;55.822;37.330;2023-11-25T07:29:32;17.33;;;7.00;;
72941;SDS011;69665;55.822;37.330;2023-11-25T07:31:58;17.80;;;7.43;;
72941;SDS011;69665;55.822;37.330;2023-11-25T07:34:26;14.63;;;6.32;;
72941;SDS011;69665;55.822;37.330;2023-11-25T07:36:54;18.20;;;6.97;;
72941;SDS011;69665;55.822;37.330;2023-11-25T07:39:20;16.33;;;6.80;;
72941;SDS011;69665;55.822;37.330;2023-11-25T07:41:51;15.57;;;5.93;;
72941;SDS011;69665;55.822;37.330;2023-11-25T07:44:20;14.18;;;6.40;;
72941;SDS011;69665;55.822;37.330;2023-11-25T07:46:47;16.23;;;5.93;;
72941;SDS011;69665;55.822;37.330;2023-11-25T07:49:13;18.40;;;7.05;;
72941;SDS011;69665;55.822;37.330;2023-11-25T07:51:39;20.17;;;7.47;;
72941;SDS011;69665;55.822;37.330;2023-11-25T07:54:04;20.63;;;7.10;;
72941;SDS011;69665;55.822;37.330;2023-11-25T07:56:30;19.83;;;6.78;;
72941;SDS011;69665;55.822;37.330;2023-11-25T07:58:55;19.20;;;7.10;;
72941;SDS011;69665;55.822;37.330;2023-11-25T08:01:21;18.33;;;7.22;;
72941;SDS011;69665;55.822;37.330;2023-11-25T08:03:47;17.83;;;6.72;;
72941;SDS011;69665;55.822;37.330;2023-11-25T08:06:15;20.48;;;8.73;;
72941;SDS011;69665;55.822;37.330;2023-11-25T08:08:41;19.42;;;8.40;;
72941;SDS011;69665;55.822;37.330;2023-11-25T08:11:07;20.85;;;8.82;;
72941;SDS011;69665;55.822;37.330;2023-11-25T08:13:34;20.13;;;8.68;;
72941;SDS011;69665;55.822;37.330;2023-11-25T08:16:00;21.58;;;8.27;;
72941;SDS011;69665;55.822;37.330;2023-11-25T08:18:27;20.95;;;8.55;;
72941;SDS011;69665;55.822;37.330;2023-11-25T08:20:53;23.52;;;8.70;;
72941;SDS011;69665;55.822;37.330;2023-11-25T08:23:18;18.90;;;8.30;;
72941;SDS011;69665;55.822;37.330;2023-11-25T08:25:45;20.17;;;8.00;;
72941;SDS011;69665;55.822;37.330;2023-11-25T08:28:11;22.15;;;8.20;;
72941;SDS011;69665;55.822;37.330;2023-11-25T08:30:39;21.92;;;8.50;;
72941;SDS011;69665;55.822;37.330;2023-11-25T08:33:05;21.95;;;8.98;;
72941;SDS011;69665;55.822;37.330;2023-11-25T08:35:30;20.23;;;8.15;;
72941;SDS011;69665;55.822;37.330;2023-11-25T08:37:56;19.80;;;7.43;;
72941;SDS011;69665;55.822;37.330;2023-11-25T08:40:22;17.52;;;6.85;;
72941;SDS011;69665;55.822;37.330;2023-11-25T08:42:48;18.77;;;7.63;;
72941;SDS011;69665;55.822;37.330;2023-11-25T08:45:17;17.50;;;7.35;;
72941;SDS011;69665;55.822;37.330;2023-11-25T08:47:42;23.23;;;7.90;;
72941;SDS011;69665;55.822;37.330;2023-11-25T08:50:09;20.02;;;7.93;;
72941;SDS011;69665;55.822;37.330;2023-11-25T08:52:36;19.70;;;8.25;;
72941;SDS011;69665;55.822;37.330;2023-11-25T08:55:05;17.27;;;7.18;;
72941;SDS011;69665;55.822;37.330;2023-11-25T08:57:33;19.52;;;8.70;;
72941;SDS011;69665;55.822;37.330;2023-11-25T09:00:02;18.25;;;6.90;;
72941;SDS011;69665;55.822;37.330;2023-11-25T09:02:31;20.17;;;8.07;;
72941;SDS011;69665;55.822;37.330;2023-11-25T09:04:57;20.40;;;7.72;;
72941;SDS011;69665;55.822;37.330;2023-11-25T09:07:23;18.92;;;8.27;;
72941;SDS011;69665;55.822;37.330;2023-11-25T09:09:49;21.27;;;8.15;;
72941;SDS011;69665;55.822;37.330;2023-11-25T09:12:15;19.73;;;8.48;;
72941;SDS011;69665;55.822;37.330;2023-11-25T09:14:41;18.92;;;7.85;;
72941;SDS011;69665;55.822;37.330;2023-11-25T09:17:09;19.08;;;7.40;;
72941;SDS011;69665;55.822;37.330;2023-11-25T09:19:36;20.15;;;8.45;;
72941;SDS011;69665;55.822;37.330;2023-11-25T09:22:02;19.33;;;7.85;;
72941;SDS011;69665;55.822;37.330;2023-11-25T09:24:29;22.83;;;9.10;;
72941;SDS011;69665;55.822;37.330;2023-11-25T09:26:54;20.42;;;8.43;;
72941;SDS011;69665;55.822;37.330;2023-11-25T09:29:20;18.25;;;7.90;;
72941;SDS011;69665;55.822;37.330;2023-11-25T09:31:46;22.60;;;8.65;;
72941;SDS011;69665;55.822;37.330;2023-11-25T09:34:11;21.30;;;8.07;;
72941;SDS011;69665;55.822;37.330;2023-11-25T09:36:37;19.20;;;8.70;;
72941;SDS011;69665;55.822;37.330;2023-11-25T09:39:03;17.73;;;8.02;;
72941;SDS011;69665;55.822;37.330;2023-11-25T09:41:30;21.55;;;8.52;;
72941;SDS011;69665;55.822;37.330;2023-11-25T09:43:56;19.55;;;8.32;;
72941;SDS011;69665;55.822;37.330;2023-11-25T09:46:22;21.88;;;8.35;;
72941;SDS011;69665;55.822;37.330;2023-11-25T09:48:48;23.35;;;8.50;;
72941;SDS011;69665;55.822;37.330;2023-11-25T09:51:14;17.95;;;8.13;;
72941;SDS011;69665;55.822;37.330;2023-11-25T09:53:44;19.88;;;8.05;;
72941;SDS011;69665;55.822;37.330;2023-11-25T09:56:12;19.23;;;8.38;;
72941;SDS011;69665;55.822;37.330;2023-11-25T09:58:39;19.60;;;8.43;;
72941;SDS011;69665;55.822;37.330;2023-11-25T10:01:04;18.02;;;8.25;;
72941;SDS011;69665;55.822;37.330;2023-11-25T10:03:32;22.60;;;8.73;;
72941;SDS011;69665;55.822;37.330;2023-11-25T10:05:58;16.95;;;8.55;;
72941;SDS011;69665;55.822;37.330;2023-11-25T10:08:23;20.85;;;9.07;;
72941;SDS011;69665;55.822;37.330;2023-11-25T10:11:02;21.73;;;8.77;;
72941;SDS011;69665;55.822;37.330;2023-11-25T10:13:37;23.67;;;9.13;;
72941;SDS011;69665;55.822;37.330;2023-11-25T10:16:03;24.35;;;9.27;;
72941;SDS011;69665;55.822;37.330;2023-11-25T10:18:29;21.58;;;9.32;;
72941;SDS011;69665;55.822;37.330;2023-11-25T10:20:55;20.35;;;8.18;;
72941;SDS011;69665;55.822;37.330;2023-11-25T10:23:24;22.17;;;8.85;;
72941;SDS011;69665;55.822;37.330;2023-11-25T10:25:49;23.75;;;10.32;;
72941;SDS011;69665;55.822;37.330;2023-11-25T10:28:21;23.13;;;8.95;;
72941;SDS011;69665;55.822;37.330;2023-11-25T10:30:57;19.45;;;8.38;;
72941;SDS011;69665;55.822;37.330;2023-11-25T10:33:27;21.40;;;8.55;;
72941;SDS011;69665;55.822;37.330;2023-11-25T10:35:53;23.50;;;9.50;;
72941;SDS011;69665;55.822;37.330;2023-11-25T10:38:20;21.90;;;9.70;;
72941;SDS011;69665;55.822;37.330;2023-11-25T10:41:03;23.73;;;9.52;;
72941;SDS011;69665;55.822;37.330;2023-11-25T10:43:29;23.30;;;9.95;;
72941;SDS011;69665;55.822;37.330;2023-11-25T10:46:02;24.20;;;9.60;;
72941;SDS011;69665;55.822;37.330;2023-11-25T10:48:28;20.80;;;9.23;;
72941;SDS011;69665;55.822;37.330;2023-11-25T10:50:54;21.10;;;9.77;;
72941;SDS011;69665;55.822;37.330;2023-11-25T10:53:19;22.60;;;9.00;;
72941;SDS011;69665;55.822;37.330;2023-11-25T10:55:47;23.27;;;9.88;;
72941;SDS011;69665;55.822;37.330;2023-11-25T10:58:13;23.45;;;9.70;;
72941;SDS011;69665;55.822;37.330;2023-11-25T11:00:40;24.00;;;9.10;;
72941;SDS011;69665;55.822;37.330;2023-11-25T11:03:08;23.33;;;9.90;;
72941;SDS011;69665;55.822;37.330;2023-11-25T11:05:40;23.42;;;9.30;;
72941;SDS011;69665;55.822;37.330;2023-11-25T11:08:07;28.67;;;9.80;;
72941;SDS011;69665;55.822;37.330;2023-11-25T11:10:36;21.13;;;9.10;;
72941;SDS011;69665;55.822;37.330;2023-11-25T11:13:05;24.10;;;9.15;;
72941;SDS011;69665;55.822;37.330;2023-11-25T11:15:33;20.20;;;7.93;;
72941;SDS011;69665;55.822;37.330;2023-11-25T11:20:39;21.35;;;9.45;;
72941;SDS011;69665;55.822;37.330;2023-11-25T11:23:06;21.77;;;8.75;;
72941;SDS011;69665;55.822;37.330;2023-11-25T11:25:48;22.95;;;9.52;;
72941;SDS011;69665;55.822;37.330;2023-11-25T11:28:20;19.73;;;8.73;;
72941;SDS011;69665;55.822;37.330;2023-11-25T11:33:15;21.52;;;8.95;;
72941;SDS011;69665;55.822;37.330;2023-11-25T11:35:41;19.98;;;8.63;;
72941;SDS011;69665;55.822;37.330;2023-11-25T11:40:55;19.77;;;8.35;;
72941;SDS011;69665;55.822;37.330;2023-11-25T11:43:23;19.98;;;8.13;;
72941;SDS011;69665;55.822;37.330;2023-11-25T11:45:49;18.77;;;7.97;;
72941;SDS011;69665;55.822;37.330;2023-11-25T11:48:15;20.67;;;9.30;;
72941;SDS011;69665;55.822;37.330;2023-11-25T11:50:43;19.88;;;8.50;;
72941;SDS011;69665;55.822;37.330;2023-11-25T11:58:10;21.65;;;9.00;;
72941;SDS011;69665;55.822;37.330;2023-11-25T12:03:21;19.48;;;7.68;;
72941;SDS011;69665;55.822;37.330;2023-11-25T12:05:47;18.77;;;8.05;;
72941;SDS011;69665;55.822;37.330;2023-11-25T12:08:13;19.95;;;8.32;;
72941;SDS011;69665;55.822;37.330;2023-11-25T12:10:39;17.17;;;7.82;;
72941;SDS011;69665;55.822;37.330;2023-11-25T12:13:05;20.02;;;7.85;;
72941;SDS011;69665;55.822;37.330;2023-11-25T12:15:31;23.08;;;8.80;;
72941;SDS011;69665;55.822;37.330;2023-11-25T12:17:57;21.95;;;8.57;;
72941;SDS011;69665;55.822;37.330;2023-11-25T12:20:23;22.25;;;9.20;;
72941;SDS011;69665;55.822;37.330;2023-11-25T12:22:51;24.75;;;9.27;;
72941;SDS011;69665;55.822;37.330;2023-11-25T12:25:17;21.40;;;9.23;;
72941;SDS011;69665;55.822;37.330;2023-11-25T12:27:52;21.42;;;8.60;;
72941;SDS011;69665;55.822;37.330;2023-11-25T12:30:19;20.90;;;8.80;;
72941;SDS011;69665;55.822;37.330;2023-11-25T12:32:44;22.55;;;8.45;;
72941;SDS011;69665;55.822;37.330;2023-11-25T12:35:10;23.35;;;9.23;;
72941;SDS011;69665;55.822;37.330;2023-11-25T12:37:38;22.13;;;8.48;;
72941;SDS011;69665;55.822;37.330;2023-11-25T12:40:19;22.67;;;8.75;;
72941;SDS011;69665;55.822;37.330;2023-11-25T12:42:47;19.60;;;8.50;;
72941;SDS011;69665;55.822;37.330;2023-11-25T12:47:55;19.15;;;8.48;;
72941;SDS011;69665;55.822;37.330;2023-11-25T12:50:21;25.40;;;9.77;;
72941;SDS011;69665;55.822;37.330;2023-11-25T12:53:00;23.42;;;9.27;;
72941;SDS011;69665;55.822;37.330;2023-11-25T12:55:33;25.13;;;9.45;;
72941;SDS011;69665;55.822;37.330;2023-11-25T12:58:06;23.33;;;10.05;;
72941;SDS011;69665;55.822;37.330;2023-11-25T13:00:32;22.30;;;8.75;;
72941;SDS011;69665;55.822;37.330;2023-11-25T13:02:58;19.48;;;9.07;;
72941;SDS011;69665;55.822;37.330;2023-11-25T13:05:24;23.08;;;9.23;;
72941;SDS011;69665;55.822;37.330;2023-11-25T13:07:49;20.63;;;8.57;;
72941;SDS011;69665;55.822;37.330;2023-11-25T13:10:15;24.13;;;8.75;;
72941;SDS011;69665;55.822;37.330;2023-11-25T13:12:41;23.45;;;9.27;;
72941;SDS011;69665;55.822;37.330;2023-11-25T13:15:07;22.65;;;10.60;;
72941;SDS011;69665;55.822;37.330;2023-11-25T13:17:34;24.50;;;9.82;;
72941;SDS011;69665;55.822;37.330;2023-11-25T13:20:01;19.85;;;9.07;;
72941;SDS011;69665;55.822;37.330;2023-11-25T13:22:29;23.17;;;9.65;;
72941;SDS011;69665;55.822;37.330;2023-11-25T13:24:55;23.65;;;8.77;;
72941;SDS011;69665;55.822;37.330;2023-11-25T13:27:21;20.70;;;9.40;;
72941;SDS011;69665;55.822;37.330;2023-11-25T13:29:46;21.20;;;8.80;;
72941;SDS011;69665;55.822;37.330;2023-11-25T13:32:14;20.30;;;8.85;;
72941;SDS011;69665;55.822;37.330;2023-11-25T13:34:40;26.23;;;9.85;;
72941;SDS011;69665;55.822;37.330;2023-11-25T13:37:06;24.88;;;9.60;;
72941;SDS011;69665;55.822;37.330;2023-11-25T13:39:33;19.98;;;8.30;;
72941;SDS011;69665;55.822;37.330;2023-11-25T13:41:58;23.88;;;9.88;;
72941;SDS011;69665;55.822;37.330;2023-11-25T13:44:24;19.73;;;9.70;;
72941;SDS011;69665;55.822;37.330;2023-11-25T13:46:49;22.83;;;9.52;;
72941;SDS011;69665;55.822;37.330;2023-11-25T13:49:15;22.88;;;9.43;;
72941;SDS011;69665;55.822;37.330;2023-11-25T13:51:42;27.08;;;9.68;;
72941;SDS011;69665;55.822;37.330;2023-11-25T13:54:07;24.50;;;10.68;;
72941;SDS011;69665;55.822;37.330;2023-11-25T13:56:35;27.50;;;13.00;;
72941;SDS011;69665;55.822;37.330;2023-11-25T13:59:00;26.60;;;10.93;;
72941;SDS011;69665;55.822;37.330;2023-11-25T14:01:26;24.52;;;10.85;;
72941;SDS011;69665;55.822;37.330;2023-11-25T14:03:53;23.40;;;10.60;;
72941;SDS011;69665;55.822;37.330;2023-11-25T14:06:22;24.20;;;9.98;;
72941;SDS011;69665;55.822;37.330;2023-11-25T14:08:50;20.38;;;9.60;;
72941;SDS011;69665;55.822;37.330;2023-11-25T14:11:15;24.55;;;10.25;;
72941;SDS011;69665;55.822;37.330;2023-11-25T14:13:42;21.20;;;8.55;;
72941;SDS011;69665;55.822;37.330;2023-11-25T14:16:07;20.08;;;8.85;;
72941;SDS011;69665;55.822;37.330;2023-11-25T14:18:37;21.35;;;8.70;;
72941;SDS011;69665;55.822;37.330;2023-11-25T14:21:03;26.00;;;9.70;;
72941;SDS011;69665;55.822;37.330;2023-11-25T14:23:28;24.50;;;9.25;;
72941;SDS011;69665;55.822;37.330;2023-11-25T14:25:55;23.60;;;8.55;;
72941;SDS011;69665;55.822;37.330;2023-11-25T14:28:20;26.77;;;10.73;;
72941;SDS011;69665;55.822;37.330;2023-11-25T14:30:47;19.77;;;9.05;;
72941;SDS011;69665;55.822;37.330;2023-11-25T14:33:13;22.80;;;9.35;;
72941;SDS011;69665;55.822;37.330;2023-11-25T14:35:39;22.77;;;9.38;;
72941;SDS011;69665;55.822;37.330;2023-11-25T14:38:05;24.80;;;10.15;;